Vale, South Dakota
Current Conditions -  °F | °C
As of 7:55 AM on Wednesday 26 Nov 2014 (Local Time) from KSPF Reporting Station
Unknown Precip Unknown Precip  
Wind Chill: 17°   Ceiling: 2300
Heat Index: 25°   Visibility: 5mi
Dew Point: 25°   Wind: 7mph
Humidity: 100%   Direction: 270°W
Pressure: 30.18"   Gusts: NA
Location:  44.62°N, 103.4°W
Report Text: KSPF 261455Z AUTO 27006KT 5SM UP OVC023 M04/M04 A3018 RMK AO2
Loading
Personal Weather Stations






























Interactive Weather Map New forecast layout! Learn more

10-Day Weather Forecast

Advertisements
Track Severe Weather on mobile